Time;durP1;ratioP1;P1;durP2;ratioP2;P2;SDS_P1;SDS_P2;PMS_P1;PMS_P2;Temp;Humidity;BMP_temperature;BMP_pressure;BME280_temperature;BME280_humidity;BME280_pressure;Samples;Min_cycle;Max_cycle;Signal;HPM_P1;HPM_P2
2022/02/12 00:00:38;;;;;;;9.20;3.28;;;-0.50;99.90;;;;;;5048944;28;20103;-73
2022/02/12 00:03:03;;;;;;;7.88;3.33;;;-0.60;99.90;;;;;;5047040;28;20091;-72
2022/02/12 00:05:29;;;;;;;11.40;3.72;;;-0.60;99.90;;;;;;5046306;28;20069;-72
2022/02/12 00:07:56;;;;;;;9.85;3.30;;;-0.60;99.90;;;;;;5026919;28;20037;-72
2022/02/12 00:10:24;;;;;;;9.40;3.60;;;-0.60;99.90;;;;;;5050181;28;20437;-72
2022/02/12 00:12:50;;;;;;;9.95;3.47;;;-0.60;99.90;;;;;;5023141;28;20049;-72
2022/02/12 00:15:16;;;;;;;7.68;3.35;;;-0.70;99.90;;;;;;5045463;28;20048;-72
2022/02/12 00:17:45;;;;;;;9.10;3.22;;;-0.70;99.90;;;;;;5050879;28;20037;-72
2022/02/12 00:20:11;;;;;;;9.30;3.47;;;-0.70;99.90;;;;;;5042334;28;20048;-72
2022/02/12 00:22:37;;;;;;;12.70;3.85;;;-0.70;99.90;;;;;;5035818;28;20052;-72
2022/02/12 00:25:04;;;;;;;6.95;3.53;;;-0.70;99.90;;;;;;5046552;28;20037;-72
2022/02/12 00:27:29;;;;;;;12.40;3.85;;;-0.70;99.90;;;;;;5046994;28;20060;-72
2022/02/12 00:29:55;;;;;;;8.95;3.30;;;-0.70;99.90;;;;;;5061892;28;20071;-72
2022/02/12 00:32:21;;;;;;;10.57;3.80;;;-0.70;99.90;;;;;;5032134;28;20053;-72
2022/02/12 00:34:46;;;;;;;9.68;3.45;;;-0.70;99.90;;;;;;5050464;28;20095;-72
2022/02/12 00:37:12;;;;;;;12.70;3.85;;;-0.70;99.90;;;;;;5044058;28;20099;-72
2022/02/12 00:39:39;;;;;;;10.57;4.07;;;-0.70;99.90;;;;;;5025923;28;20068;-72
2022/02/12 00:42:05;;;;;;;10.63;3.70;;;-0.80;99.90;;;;;;5037845;28;20486;-72
2022/02/12 00:44:30;;;;;;;8.63;3.55;;;-0.80;99.90;;;;;;5030964;28;20056;-72
2022/02/12 00:46:56;;;;;;;12.75;4.25;;;-0.80;99.90;;;;;;5050042;28;20501;-72
2022/02/12 00:49:23;;;;;;;10.88;4.28;;;-0.80;99.90;;;;;;5053378;28;20040;-72
2022/02/12 00:51:49;;;;;;;8.25;3.80;;;-0.80;99.90;;;;;;5031218;28;20091;-72
2022/02/12 00:54:14;;;;;;;10.50;4.55;;;-0.80;99.90;;;;;;5027484;28;20041;-72
2022/02/12 00:56:40;;;;;;;14.82;4.70;;;-0.80;99.90;;;;;;5034218;28;20090;-72
2022/02/12 00:59:06;;;;;;;10.63;4.32;;;-0.80;99.90;;;;;;5031219;28;20164;-72
2022/02/12 01:01:32;;;;;;;15.98;4.57;;;-0.80;99.90;;;;;;5034475;28;20077;-72
2022/02/12 01:03:58;;;;;;;14.48;4.45;;;-0.80;99.90;;;;;;5041242;28;20045;-72
2022/02/12 01:06:24;;;;;;;9.23;4.20;;;-0.80;99.90;;;;;;5035590;28;20632;-72
2022/02/12 01:08:49;;;;;;;10.90;4.18;;;-0.70;99.90;;;;;;5041708;28;20403;-72
2022/02/12 01:11:15;;;;;;;13.27;4.78;;;-0.70;99.90;;;;;;5037104;28;20037;-72
2022/02/12 01:13:41;;;;;;;12.77;4.95;;;-0.80;99.90;;;;;;5045012;28;20600;-72
2022/02/12 01:16:07;;;;;;;10.85;4.60;;;-0.70;99.90;;;;;;5045491;28;20038;-72
2022/02/12 01:18:33;;;;;;;10.25;4.60;;;-0.70;99.90;;;;;;5036443;28;20037;-72
2022/02/12 01:20:59;;;;;;;7.93;4.85;;;-0.70;99.90;;;;;;5046257;28;20087;-72
2022/02/12 01:23:24;;;;;;;12.95;4.22;;;-0.70;99.90;;;;;;5030660;28;20495;-72
2022/02/12 01:25:50;;;;;;;12.50;4.90;;;-0.80;99.90;;;;;;5033445;28;20121;-72
2022/02/12 01:28:17;;;;;;;12.90;4.60;;;-0.80;99.90;;;;;;5036489;28;20471;-72
2022/02/12 01:30:46;;;;;;;10.60;4.68;;;-0.80;99.90;;;;;;5049340;28;20554;-72
2022/02/12 01:33:13;;;;;;;13.48;4.97;;;-0.80;99.90;;;;;;5038585;28;20049;-71
2022/02/12 01:35:38;;;;;;;12.40;5.10;;;-0.80;99.90;;;;;;5020790;28;20045;-72
2022/02/12 01:38:04;;;;;;;11.98;4.65;;;-0.90;99.90;;;;;;5041270;28;20053;-71
2022/02/12 01:40:30;;;;;;;12.85;4.82;;;-0.80;99.90;;;;;;5048466;28;20036;-71
2022/02/12 01:42:56;;;;;;;11.02;5.35;;;-0.90;99.90;;;;;;5033611;28;20033;-71
2022/02/12 01:45:22;;;;;;;14.80;5.28;;;-0.90;99.90;;;;;;5042216;28;20449;-71
2022/02/12 01:47:50;;;;;;;12.90;5.28;;;-0.90;99.90;;;;;;5015985;28;20116;-71
2022/02/12 01:50:16;;;;;;;13.77;5.53;;;-0.90;99.90;;;;;;5044377;28;20036;-71
2022/02/12 01:52:44;;;;;;;12.38;4.93;;;-0.90;99.90;;;;;;5046588;28;20041;-71
2022/02/12 01:55:09;;;;;;;12.13;5.00;;;-0.90;99.90;;;;;;5045356;28;20045;-71
2022/02/12 01:57:35;;;;;;;13.18;5.22;;;-0.80;99.90;;;;;;5044095;28;20087;-71
2022/02/12 02:00:04;;;;;;;11.70;5.10;;;-0.90;99.90;;;;;;5041397;28;20068;-71
2022/02/12 02:02:29;;;;;;;15.52;5.53;;;-0.80;99.90;;;;;;5031379;28;20090;-71
2022/02/12 02:04:55;;;;;;;17.52;5.72;;;-0.90;99.90;;;;;;5042580;28;20683;-71
2022/02/12 02:07:21;;;;;;;16.08;5.47;;;-0.90;99.90;;;;;;5030857;28;20033;-71
2022/02/12 02:09:47;;;;;;;15.70;5.72;;;-0.90;99.90;;;;;;5034073;28;20132;-71
2022/02/12 02:12:12;;;;;;;12.98;5.22;;;-0.90;99.90;;;;;;5046367;28;20072;-71
2022/02/12 02:14:40;;;;;;;17.88;5.88;;;-0.90;99.90;;;;;;5034979;28;20087;-71
2022/02/12 02:17:07;;;;;;;13.65;5.20;;;-0.90;99.90;;;;;;5033062;28;20079;-71
2022/02/12 02:19:32;;;;;;;12.65;5.78;;;-0.90;99.90;;;;;;5049159;28;20116;-71
2022/02/12 02:22:00;;;;;;;15.02;5.75;;;-0.90;99.90;;;;;;5030883;28;20120;-71
2022/02/12 02:24:27;;;;;;;15.20;5.18;;;-0.90;99.90;;;;;;5037676;28;20045;-71
2022/02/12 02:27:24;;;;;;;12.18;5.00;;;-0.90;99.90;;;;;;5027243;28;20052;-71
2022/02/12 02:29:49;;;;;;;15.13;5.75;;;-0.90;99.90;;;;;;5018527;28;20458;-71
2022/02/12 02:32:17;;;;;;;11.23;6.20;;;-0.90;99.90;;;;;;5035867;28;20049;-71
2022/02/12 02:34:51;;;;;;;15.32;5.60;;;-0.90;99.90;;;;;;5038142;28;20052;-71
2022/02/12 02:37:17;;;;;;;11.57;6.07;;;-0.90;99.90;;;;;;5023688;28;20064;-72
2022/02/12 02:39:43;;;;;;;13.60;6.00;;;-0.90;99.90;;;;;;5037687;28;20128;-72
2022/02/12 02:42:08;;;;;;;15.18;6.68;;;-0.90;99.90;;;;;;5035602;28;20136;-72
2022/02/12 02:44:34;;;;;;;13.77;6.13;;;-0.80;99.90;;;;;;5033649;28;20056;-72
2022/02/12 02:47:32;;;;;;;15.05;6.05;;;-0.80;99.90;;;;;;5037925;28;20048;-72
2022/02/12 02:49:45;;;;;;;17.13;6.53;;;-0.80;99.90;;;;;;5030703;28;20085;-72
2022/02/12 02:57:39;;;;;;;15.80;6.90;;;-0.80;99.90;;;;;;5042459;28;20045;-72
2022/02/12 03:00:05;;;;;;;12.38;6.53;;;-0.80;99.90;;;;;;5038945;28;20674;-72
2022/02/12 03:02:30;;;;;;;15.07;5.85;;;-0.80;99.90;;;;;;5042416;28;20048;-72
2022/02/12 03:04:56;;;;;;;13.98;6.00;;;-0.80;99.90;;;;;;5035478;28;20052;-72
2022/02/12 03:07:21;;;;;;;16.58;6.07;;;-0.80;99.90;;;;;;5064251;28;20533;-72
2022/02/12 03:09:47;;;;;;;16.33;6.25;;;-0.80;99.90;;;;;;5031919;28;20044;-72
2022/02/12 03:12:12;;;;;;;15.20;5.22;;;-0.80;99.90;;;;;;5042063;28;20033;-72
2022/02/12 03:14:38;;;;;;;12.30;5.95;;;-0.80;99.90;;;;;;5069219;28;20471;-72
2022/02/12 03:17:04;;;;;;;12.25;5.45;;;-0.80;99.90;;;;;;5026369;28;20033;-72
2022/02/12 03:19:29;;;;;;;15.70;5.80;;;-0.90;99.90;;;;;;5053271;28;20082;-72
2022/02/12 03:21:55;;;;;;;16.80;5.40;;;-0.90;99.90;;;;;;5048432;22;20044;-72
2022/02/12 03:24:20;;;;;;;12.93;5.15;;;-0.90;99.90;;;;;;5071050;28;20067;-72
2022/02/12 03:26:46;;;;;;;13.98;5.63;;;-0.90;99.90;;;;;;5055728;28;20170;-72
2022/02/12 03:29:11;;;;;;;12.05;5.65;;;-0.90;99.90;;;;;;5071956;28;20487;-72
2022/02/12 03:31:37;;;;;;;13.70;6.03;;;-0.90;99.90;;;;;;5071690;28;20480;-72
2022/02/12 03:34:02;;;;;;;15.50;5.55;;;-0.90;99.90;;;;;;5073950;28;20186;-72
2022/02/12 03:36:28;;;;;;;13.82;4.75;;;-0.90;99.90;;;;;;5072422;28;20123;-72
2022/02/12 03:38:54;;;;;;;18.60;5.15;;;-0.90;99.90;;;;;;5072168;28;20048;-72
2022/02/12 03:41:19;;;;;;;13.82;5.45;;;-0.80;99.90;;;;;;5070571;28;20040;-72
2022/02/12 03:43:45;;;;;;;13.48;5.13;;;-0.80;99.90;;;;;;5054207;28;20071;-72
2022/02/12 03:46:10;;;;;;;14.40;5.05;;;-0.90;99.90;;;;;;5068624;28;20130;-72
2022/02/12 03:48:36;;;;;;;13.57;5.03;;;-0.90;99.90;;;;;;5071754;28;20040;-72
2022/02/12 03:51:01;;;;;;;14.43;4.72;;;-0.90;99.90;;;;;;5071602;28;20417;-72
2022/02/12 03:53:27;;;;;;;15.13;5.07;;;-0.80;99.90;;;;;;5060986;28;20071;-72
2022/02/12 03:55:52;;;;;;;12.25;4.55;;;-0.80;99.90;;;;;;5050486;28;20413;-72
2022/02/12 03:58:19;;;;;;;11.68;4.57;;;-0.80;99.90;;;;;;5065279;28;20040;-72
2022/02/12 04:00:46;;;;;;;10.93;4.28;;;-0.80;99.90;;;;;;5071648;28;20040;-72
2022/02/12 04:03:12;;;;;;;13.43;4.25;;;-0.80;99.90;;;;;;5071645;28;20036;-72
2022/02/12 04:05:41;;;;;;;11.65;4.40;;;-0.90;99.90;;;;;;5070312;28;20097;-72
2022/02/12 04:08:06;;;;;;;13.57;4.50;;;-0.90;99.90;;;;;;5071580;28;20045;-72
2022/02/12 04:10:32;;;;;;;14.27;4.47;;;-0.90;99.90;;;;;;5071947;28;20033;-72
2022/02/12 04:12:59;;;;;;;12.05;5.35;;;-0.90;99.90;;;;;;5072018;28;20101;-72
2022/02/12 04:15:25;;;;;;;12.40;4.28;;;-0.90;99.90;;;;;;5072231;28;20036;-72
2022/02/12 04:17:51;;;;;;;12.35;4.20;;;-0.90;99.90;;;;;;5070307;28;20052;-72
2022/02/12 04:20:19;;;;;;;11.93;3.85;;;-0.90;99.90;;;;;;5071619;28;20445;-72
2022/02/12 04:22:46;;;;;;;14.68;4.22;;;-0.90;99.90;;;;;;5071890;28;20048;-72
2022/02/12 04:25:14;;;;;;;12.38;3.92;;;-0.90;99.90;;;;;;5071011;28;20127;-72
2022/02/12 04:27:40;;;;;;;12.23;4.25;;;-0.90;99.90;;;;;;5070833;28;20494;-72
2022/02/12 04:30:07;;;;;;;8.20;3.90;;;-0.80;99.90;;;;;;5067931;28;20040;-72
2022/02/12 04:32:33;;;;;;;12.45;4.13;;;-0.80;99.90;;;;;;5052999;28;20392;-72
2022/02/12 04:35:02;;;;;;;10.43;3.83;;;-0.80;99.90;;;;;;5069183;28;20032;-73
2022/02/12 04:37:28;;;;;;;13.57;4.00;;;-0.80;99.90;;;;;;5070608;28;20036;-73
2022/02/12 04:39:54;;;;;;;14.27;4.80;;;-0.80;99.90;;;;;;5054559;28;20405;-73
2022/02/12 04:42:19;;;;;;;12.18;4.50;;;-0.70;99.90;;;;;;5071139;28;20040;-73
2022/02/12 04:44:47;;;;;;;18.52;5.13;;;-0.70;99.90;;;;;;5071369;28;20040;-73
2022/02/12 04:47:13;;;;;;;16.92;5.28;;;-0.70;99.90;;;;;;5063314;28;20060;-73
2022/02/12 04:49:39;;;;;;;12.77;5.50;;;-0.70;99.90;;;;;;5068850;28;20045;-73
2022/02/12 04:52:06;;;;;;;16.23;5.20;;;-0.70;99.90;;;;;;5057274;28;20479;-73
2022/02/12 04:54:33;;;;;;;15.68;6.13;;;-0.70;99.90;;;;;;5051462;28;20041;-73
2022/02/12 04:56:59;;;;;;;14.70;5.78;;;-0.70;99.90;;;;;;5052865;28;20069;-73
2022/02/12 04:59:25;;;;;;;12.65;5.05;;;-0.60;99.90;;;;;;5071374;28;20040;-73
2022/02/12 05:01:51;;;;;;;11.63;5.72;;;-0.60;99.90;;;;;;5070893;28;20044;-73
2022/02/12 05:04:18;;;;;;;14.40;5.63;;;-0.60;99.90;;;;;;5071181;28;20040;-73
2022/02/12 05:06:43;;;;;;;21.27;6.00;;;-0.60;99.90;;;;;;5066710;28;20055;-73
2022/02/12 05:09:11;;;;;;;13.82;5.82;;;-0.60;99.90;;;;;;5070925;28;20443;-73
2022/02/12 05:11:37;;;;;;;18.05;5.82;;;-0.60;99.90;;;;;;5054248;28;20531;-73
2022/02/12 05:14:03;;;;;;;22.45;6.22;;;-0.60;99.90;;;;;;5070828;28;20033;-73
2022/02/12 05:16:28;;;;;;;13.85;5.85;;;-0.60;99.90;;;;;;5053804;28;20040;-73
2022/02/12 05:18:54;;;;;;;16.38;6.20;;;-0.60;99.90;;;;;;5071740;28;20040;-73
2022/02/12 05:21:19;;;;;;;20.63;6.72;;;-0.60;99.90;;;;;;5065522;28;20045;-73
2022/02/12 05:23:45;;;;;;;16.88;6.40;;;-0.60;99.90;;;;;;5053049;28;20087;-73
2022/02/12 05:26:11;;;;;;;17.88;7.30;;;-0.60;99.90;;;;;;5070539;28;20051;-73
2022/02/12 05:28:37;;;;;;;15.73;6.50;;;-0.60;99.90;;;;;;5070410;28;20039;-73
2022/02/12 05:31:02;;;;;;;10.38;6.53;;;-0.60;99.90;;;;;;5068091;28;20040;-73
2022/02/12 05:33:28;;;;;;;11.95;6.28;;;-0.60;99.90;;;;;;5070157;28;20059;-73
2022/02/12 05:35:53;;;;;;;18.10;6.75;;;-0.60;99.90;;;;;;5069276;28;20373;-73
2022/02/12 05:38:19;;;;;;;20.27;7.30;;;-0.60;99.90;;;;;;5066793;28;20052;-73
2022/02/12 05:40:45;;;;;;;13.75;7.00;;;-0.70;99.90;;;;;;5067621;28;20083;-73
2022/02/12 05:43:10;;;;;;;12.70;7.00;;;-0.70;99.90;;;;;;5069953;28;20047;-73
2022/02/12 05:45:36;;;;;;;13.98;7.30;;;-0.70;99.90;;;;;;5048441;28;20040;-73
2022/02/12 05:48:02;;;;;;;16.58;7.13;;;-0.70;99.90;;;;;;5069249;28;20025;-73
2022/02/12 05:50:29;;;;;;;19.23;7.22;;;-0.80;99.90;;;;;;5069901;28;20032;-73
2022/02/12 05:52:56;;;;;;;16.95;7.45;;;-0.80;99.90;;;;;;5069498;28;20041;-73
2022/02/12 05:55:23;;;;;;;16.38;8.27;;;-0.80;99.90;;;;;;5044921;28;20181;-73
2022/02/12 05:57:49;;;;;;;13.90;7.55;;;-0.70;99.90;;;;;;5070360;28;20385;-73
2022/02/12 06:00:15;;;;;;;17.55;8.25;;;-0.70;99.90;;;;;;5069703;28;20093;-73
2022/02/12 06:02:41;;;;;;;16.80;7.93;;;-0.70;99.90;;;;;;5069751;28;20040;-73
2022/02/12 06:05:07;;;;;;;15.77;8.00;;;-0.70;99.90;;;;;;5069480;28;20032;-73
2022/02/12 06:07:32;;;;;;;14.93;8.02;;;-0.70;99.90;;;;;;5069783;28;20040;-73
2022/02/12 06:09:58;;;;;;;17.83;8.55;;;-0.70;99.90;;;;;;5069577;28;20062;-73
2022/02/12 06:12:24;;;;;;;17.02;7.40;;;-0.70;99.90;;;;;;5069925;28;20048;-72
2022/02/12 06:14:49;;;;;;;12.55;8.07;;;-0.70;99.90;;;;;;5069256;28;20056;-73
2022/02/12 06:17:15;;;;;;;20.17;8.00;;;-0.70;99.90;;;;;;5069564;28;20036;-73
2022/02/12 06:19:40;;;;;;;20.65;8.10;;;-0.80;99.90;;;;;;5070144;28;20075;-73
2022/02/12 06:22:06;;;;;;;16.85;8.32;;;-0.80;99.90;;;;;;5069466;28;20516;-73
2022/02/12 06:24:31;;;;;;;14.45;7.72;;;-0.70;99.90;;;;;;5070219;28;20052;-73
2022/02/12 06:26:57;;;;;;;16.23;8.55;;;-0.70;99.90;;;;;;5069737;28;20671;-73
2022/02/12 06:29:26;;;;;;;16.35;8.75;;;-0.70;99.90;;;;;;5068853;28;20513;-73
2022/02/12 06:31:51;;;;;;;13.63;8.30;;;-0.60;99.90;;;;;;5051727;28;20056;-73
2022/02/12 06:34:18;;;;;;;17.92;8.65;;;-0.60;99.90;;;;;;5069294;28;20036;-73
2022/02/12 06:36:43;;;;;;;20.33;9.50;;;-0.60;99.90;;;;;;5071367;28;20045;-73
2022/02/12 06:39:09;;;;;;;15.50;8.75;;;-0.50;99.90;;;;;;5070066;28;20371;-73
2022/02/12 06:41:35;;;;;;;25.48;9.18;;;-0.50;99.90;;;;;;5069356;28;20090;-73
2022/02/12 06:44:01;;;;;;;17.02;9.18;;;-0.50;99.90;;;;;;5069695;28;20522;-73
2022/02/12 06:46:27;;;;;;;17.88;8.45;;;-0.50;99.90;;;;;;5069123;28;20071;-73
2022/02/12 06:48:52;;;;;;;13.35;8.82;;;-0.50;99.90;;;;;;5070832;28;20059;-73
2022/02/12 06:51:18;;;;;;;21.80;10.70;;;-0.50;99.90;;;;;;5073056;28;20051;-73
2022/02/12 06:53:44;;;;;;;14.80;9.10;;;-0.50;99.90;;;;;;5056866;28;20141;-73
2022/02/12 06:56:10;;;;;;;17.52;9.27;;;-0.40;99.90;;;;;;5072560;28;20442;-73
2022/02/12 06:58:36;;;;;;;21.10;10.38;;;-0.40;99.90;;;;;;5069358;28;20071;-73
2022/02/12 07:01:02;;;;;;;21.50;11.02;;;-0.40;99.90;;;;;;5072261;28;20087;-73
2022/02/12 07:03:28;;;;;;;22.63;11.10;;;-0.40;99.90;;;;;;5063476;28;20045;-73
2022/02/12 07:05:53;;;;;;;21.85;11.05;;;-0.40;99.90;;;;;;5055382;28;20051;-73
2022/02/12 07:08:19;;;;;;;23.92;12.25;;;-0.40;99.90;;;;;;5073209;28;20040;-73
2022/02/12 07:10:44;;;;;;;22.35;11.80;;;-0.30;99.90;;;;;;5073549;28;20093;-73
2022/02/12 07:13:12;;;;;;;22.80;13.63;;;-0.20;99.90;;;;;;5056848;28;20048;-73
2022/02/12 07:15:37;;;;;;;24.40;12.07;;;-0.10;99.90;;;;;;5056419;28;20040;-73
2022/02/12 07:18:03;;;;;;;29.65;14.50;;;-0.10;99.90;;;;;;5073216;28;20037;-73
2022/02/12 07:20:29;;;;;;;21.15;13.43;;;0.00;99.90;;;;;;5073035;28;20466;-73
2022/02/12 07:22:55;;;;;;;22.42;12.75;;;0.00;99.90;;;;;;5072899;28;20044;-73
2022/02/12 07:25:21;;;;;;;20.45;11.90;;;0.00;99.90;;;;;;5051708;28;20714;-73
2022/02/12 07:27:47;;;;;;;19.92;12.00;;;0.00;99.90;;;;;;5047287;28;20063;-73
2022/02/12 07:30:15;;;;;;;24.85;12.05;;;0.00;99.90;;;;;;5072737;28;20082;-73
2022/02/12 07:32:42;;;;;;;23.52;11.95;;;0.00;99.90;;;;;;5055086;28;20511;-73
2022/02/12 07:35:10;;;;;;;24.00;12.18;;;0.00;99.90;;;;;;5070836;28;20433;-74
2022/02/12 07:37:38;;;;;;;27.90;14.60;;;0.10;99.90;;;;;;5072802;28;20089;-74
2022/02/12 07:40:05;;;;;;;23.02;13.32;;;0.20;99.90;;;;;;5055769;28;20029;-74
2022/02/12 07:42:30;;;;;;;28.30;14.10;;;0.20;99.90;;;;;;5072633;28;20098;-73
2022/02/12 07:44:56;;;;;;;23.05;11.75;;;0.20;99.90;;;;;;5070533;28;20033;-73
2022/02/12 07:47:22;;;;;;;18.90;11.35;;;0.30;99.90;;;;;;5066808;28;20041;-73
2022/02/12 07:49:48;;;;;;;23.42;12.40;;;0.30;99.90;;;;;;5072600;28;20479;-73
2022/02/12 07:52:14;;;;;;;20.90;12.48;;;0.30;99.90;;;;;;5061150;28;20106;-73
2022/02/12 07:54:39;;;;;;;20.73;11.38;;;0.40;99.90;;;;;;5062950;28;20040;-74
2022/02/12 07:57:05;;;;;;;19.08;11.43;;;0.30;99.90;;;;;;5055808;28;20045;-74
2022/02/12 07:59:30;;;;;;;19.65;11.25;;;0.40;99.90;;;;;;5066695;28;20072;-73
2022/02/12 08:01:56;;;;;;;17.33;10.75;;;0.40;99.90;;;;;;5069665;28;20097;-73
2022/02/12 08:04:21;;;;;;;18.52;10.93;;;0.40;99.90;;;;;;5071735;28;20419;-74
2022/02/12 08:09:31;;;;;;;20.58;11.02;;;0.70;99.90;;;;;;5067770;28;20417;-75
2022/02/12 08:12:13;;;;;;;23.13;11.52;;;0.70;99.90;;;;;;5054344;28;20037;-74
2022/02/12 08:14:40;;;;;;;20.27;11.10;;;0.80;99.90;;;;;;5071442;28;20370;-74
2022/02/12 08:17:05;;;;;;;19.08;10.57;;;0.90;99.90;;;;;;5054528;28;20290;-73
2022/02/12 08:19:32;;;;;;;21.40;11.65;;;1.10;99.90;;;;;;5070629;28;20036;-72
2022/02/12 08:21:58;;;;;;;21.23;10.90;;;1.10;99.90;;;;;;5054802;28;20056;-73
2022/02/12 08:24:24;;;;;;;23.25;11.32;;;1.20;99.90;;;;;;5050519;28;20480;-73
2022/02/12 08:26:49;;;;;;;17.55;11.15;;;1.20;99.90;;;;;;5070738;28;20445;-73
2022/02/12 08:29:16;;;;;;;16.92;11.18;;;1.30;99.90;;;;;;5066002;28;20036;-73
2022/02/12 08:31:42;;;;;;;18.70;10.30;;;1.40;99.90;;;;;;5070346;28;20524;-73
2022/02/12 08:34:07;;;;;;;19.13;11.25;;;1.40;99.90;;;;;;5069871;28;20048;-73
2022/02/12 08:36:33;;;;;;;18.50;10.07;;;1.50;99.90;;;;;;5052415;28;20037;-73
2022/02/12 08:38:59;;;;;;;19.52;10.68;;;1.70;99.90;;;;;;5067870;28;20060;-73
2022/02/12 08:41:25;;;;;;;19.77;9.98;;;1.70;99.90;;;;;;5069051;28;20040;-74
2022/02/12 08:43:50;;;;;;;19.05;10.93;;;1.80;99.90;;;;;;5070594;28;20041;-73
2022/02/12 08:46:16;;;;;;;16.75;9.65;;;1.90;99.90;;;;;;5065625;28;20118;-73
2022/02/12 08:48:41;;;;;;;16.33;10.75;;;2.00;99.90;;;;;;5069732;28;20036;-74
2022/02/12 08:51:08;;;;;;;18.80;10.77;;;2.10;99.90;;;;;;5053714;28;20044;-73
2022/02/12 08:53:34;;;;;;;19.08;11.43;;;2.20;99.90;;;;;;5052663;28;20032;-73
2022/02/12 08:56:00;;;;;;;18.13;9.90;;;2.30;99.90;;;;;;5066126;28;20398;-74
2022/02/12 08:58:26;;;;;;;17.30;10.75;;;2.30;99.90;;;;;;5064659;28;20040;-74
2022/02/12 09:00:52;;;;;;;18.13;10.25;;;2.40;99.90;;;;;;5068814;28;20029;-74
2022/02/12 09:03:17;;;;;;;18.85;9.98;;;2.50;99.90;;;;;;5045296;28;20122;-73
2022/02/12 09:05:43;;;;;;;15.70;8.55;;;2.50;99.90;;;;;;5070117;28;20033;-73
2022/02/12 09:08:09;;;;;;;17.08;9.50;;;2.70;99.90;;;;;;5068851;28;20036;-74
2022/02/12 09:10:35;;;;;;;19.90;10.52;;;2.70;99.90;;;;;;5070829;28;20043;-74
2022/02/12 09:13:01;;;;;;;19.58;9.57;;;2.80;99.90;;;;;;5051335;28;20044;-73
2022/02/12 09:15:26;;;;;;;16.88;8.18;;;3.00;99.90;;;;;;5068933;28;20035;-73
2022/02/12 09:17:52;;;;;;;18.80;9.40;;;3.00;99.90;;;;;;5064797;28;20044;-74
2022/02/12 09:20:17;;;;;;;16.70;8.98;;;3.10;99.90;;;;;;5068287;28;20041;-73
2022/02/12 09:22:43;;;;;;;16.38;9.20;;;3.10;99.90;;;;;;5053276;28;20859;-74
2022/02/12 09:25:09;;;;;;;21.15;9.60;;;3.10;99.90;;;;;;5068729;28;20044;-72
2022/02/12 09:27:35;;;;;;;15.60;8.43;;;3.30;99.90;;;;;;5067644;28;20121;-72
2022/02/12 09:30:05;;;;;;;17.88;7.85;;;3.30;99.90;;;;;;5050254;28;20082;-72
2022/02/12 09:32:31;;;;;;;13.32;7.30;;;3.40;99.90;;;;;;5066710;28;20041;-72
2022/02/12 09:34:57;;;;;;;15.75;8.00;;;3.40;99.90;;;;;;5064476;28;20521;-72
2022/02/12 09:37:23;;;;;;;14.93;7.78;;;3.50;99.90;;;;;;5063916;28;20067;-72
2022/02/12 09:39:49;;;;;;;15.13;7.30;;;3.40;99.90;;;;;;5067904;28;20072;-73
2022/02/12 09:42:15;;;;;;;16.40;6.40;;;3.40;99.90;;;;;;5068761;28;20060;-73
2022/02/12 09:44:41;;;;;;;12.50;7.63;;;3.50;99.90;;;;;;5068414;28;20394;-72
2022/02/12 09:47:20;;;;;;;12.00;6.50;;;3.60;99.90;;;;;;5066913;28;20109;-72
2022/02/12 09:49:48;;;;;;;15.63;6.95;;;3.60;99.90;;;;;;5051987;28;20105;-71
2022/02/12 09:52:16;;;;;;;14.15;6.70;;;3.60;99.90;;;;;;5052511;28;20044;-71
2022/02/12 09:54:44;;;;;;;14.60;6.10;;;3.80;99.90;;;;;;5069554;28;20690;-71
2022/02/12 09:57:10;;;;;;;12.00;5.50;;;3.90;99.90;;;;;;5069910;28;20036;-71
2022/02/12 09:59:35;;;;;;;13.10;5.50;;;3.80;99.90;;;;;;5052632;28;20094;-71
2022/02/12 10:02:01;;;;;;;14.63;5.95;;;3.90;99.90;;;;;;5069693;28;20478;-71
2022/02/12 10:04:29;;;;;;;11.15;5.93;;;4.00;99.90;;;;;;5069517;28;20367;-71
2022/02/12 10:06:54;;;;;;;10.88;4.97;;;4.00;99.90;;;;;;5068743;28;20060;-71
2022/02/12 10:09:20;;;;;;;10.30;5.40;;;4.10;99.90;;;;;;5071055;28;20463;-71
2022/02/12 10:11:48;;;;;;;12.18;5.97;;;4.20;99.90;;;;;;5069338;28;20131;-71
2022/02/12 10:14:20;;;;;;;14.55;5.75;;;4.30;99.90;;;;;;5069433;28;20081;-70
2022/02/12 10:16:58;;;;;;;15.45;5.72;;;4.30;99.90;;;;;;5068695;28;20151;-71
2022/02/12 10:19:29;;;;;;;11.40;5.10;;;4.40;99.90;;;;;;5059458;28;20037;-71
2022/02/12 10:22:10;;;;;;;16.93;5.00;;;4.50;99.90;;;;;;5068356;28;20076;-71
2022/02/12 10:24:52;;;;;;;13.98;5.90;;;4.70;99.90;;;;;;5055645;28;20055;-71
2022/02/12 10:27:20;;;;;;;12.20;6.10;;;4.70;99.90;;;;;;5071457;28;20059;-72
2022/02/12 10:29:47;;;;;;;10.93;5.15;;;4.80;99.90;;;;;;5073753;28;20474;-72
2022/02/12 10:32:17;;;;;;;14.45;4.78;;;4.90;99.90;;;;;;5050391;28;20044;-72
2022/02/12 10:34:44;;;;;;;11.13;4.75;;;4.90;99.90;;;;;;5067450;28;20115;-71
2022/02/12 10:37:15;;;;;;;10.68;4.65;;;5.00;99.90;;;;;;5063210;28;20645;-72
2022/02/12 10:39:52;;;;;;;10.07;4.57;;;5.00;99.90;;;;;;5071645;28;20032;-72
2022/02/12 10:42:17;;;;;;;11.45;5.40;;;5.10;99.90;;;;;;5069031;28;20079;-71
2022/02/12 10:44:44;;;;;;;10.95;4.35;;;5.10;99.90;;;;;;5070054;28;20474;-71
2022/02/12 10:47:13;;;;;;;12.10;4.18;;;5.20;99.90;;;;;;5048547;28;20109;-71
2022/02/12 10:49:40;;;;;;;10.05;4.63;;;5.30;99.90;;;;;;5069133;28;20139;-71
2022/02/12 10:52:06;;;;;;;10.55;4.90;;;5.40;99.90;;;;;;5067834;28;20044;-71
2022/02/12 10:54:51;;;;;;;10.20;4.30;;;5.50;99.90;;;;;;5072254;28;20075;-72
2022/02/12 10:57:21;;;;;;;10.73;4.80;;;5.50;99.90;;;;;;5072495;28;20591;-71
2022/02/12 10:59:48;;;;;;;13.23;4.43;;;5.50;99.90;;;;;;5063486;28;20044;-72
2022/02/12 11:02:17;;;;;;;9.05;4.43;;;5.50;99.90;;;;;;5055219;28;20127;-71
2022/02/12 11:04:44;;;;;;;10.73;4.30;;;5.60;99.90;;;;;;5065777;28;20048;-71
2022/02/12 11:07:17;;;;;;;11.48;4.22;;;5.60;99.90;;;;;;5070946;28;20087;-71
2022/02/12 11:09:44;;;;;;;13.25;4.72;;;5.60;99.90;;;;;;5072619;28;20032;-72
2022/02/12 11:12:10;;;;;;;10.55;4.47;;;5.60;99.90;;;;;;5072885;28;20036;-72
2022/02/12 11:14:36;;;;;;;11.40;4.85;;;5.70;99.90;;;;;;5078120;28;20036;-72
2022/02/12 11:17:12;;;;;;;11.23;5.00;;;5.70;99.90;;;;;;5072263;28;20051;-72
2022/02/12 11:19:38;;;;;;;14.07;5.20;;;5.70;99.90;;;;;;5071985;28;20036;-72
2022/02/12 11:22:07;;;;;;;10.93;4.28;;;5.80;99.90;;;;;;5071547;28;20080;-72
2022/02/12 11:24:40;;;;;;;9.82;4.43;;;5.90;99.90;;;;;;5072336;28;20079;-72
2022/02/12 11:27:18;;;;;;;12.27;4.07;;;5.80;99.90;;;;;;5068860;28;20351;-71
2022/02/12 11:29:45;;;;;;;9.20;3.53;;;5.90;99.90;;;;;;5070968;28;20044;-72
2022/02/12 11:32:22;;;;;;;11.43;4.28;;;5.90;99.90;;;;;;5087665;28;20132;-72
2022/02/12 11:35:06;;;;;;;12.55;3.95;;;5.90;99.90;;;;;;5069519;28;20047;-72
2022/02/12 11:37:45;;;;;;;10.82;4.10;;;6.00;99.90;;;;;;5071169;28;20045;-72
2022/02/12 11:40:12;;;;;;;11.50;3.60;;;6.00;99.90;;;;;;5052768;28;20040;-73
2022/02/12 11:42:58;;;;;;;10.75;4.10;;;6.10;99.90;;;;;;5070567;28;20394;-72
2022/02/12 11:45:36;;;;;;;11.23;4.18;;;6.20;99.90;;;;;;5067487;28;20048;-72
2022/02/12 11:48:29;;;;;;;11.52;3.67;;;6.20;99.90;;;;;;5052244;28;20101;-72
2022/02/12 11:51:03;;;;;;;11.63;4.28;;;6.40;99.90;;;;;;5064178;28;20059;-73
2022/02/12 11:53:29;;;;;;;10.10;3.72;;;6.30;99.90;;;;;;5055266;28;20060;-73
2022/02/12 11:55:55;;;;;;;11.57;4.00;;;6.40;99.90;;;;;;5071952;28;20044;-72
2022/02/12 11:58:46;;;;;;;10.20;3.67;;;6.30;99.90;;;;;;5054455;28;20489;-73
2022/02/12 12:01:33;;;;;;;10.75;3.70;;;6.40;99.90;;;;;;5077764;28;20040;-72
2022/02/12 12:04:05;;;;;;;10.25;4.43;;;6.50;99.90;;;;;;5062976;28;20521;-73
2022/02/12 12:06:35;;;;;;;8.40;3.80;;;6.40;99.90;;;;;;5060117;28;20082;-73
2022/02/12 12:09:06;;;;;;;8.75;3.35;;;6.50;99.90;;;;;;5067462;28;20051;-73
2022/02/12 12:11:31;;;;;;;8.13;3.67;;;6.60;99.90;;;;;;5067989;28;20044;-73
2022/02/12 12:13:59;;;;;;;9.70;3.60;;;6.60;99.90;;;;;;5069833;28;20039;-73
2022/02/12 12:16:34;;;;;;;8.15;3.30;;;6.60;99.90;;;;;;5066064;28;20119;-73
2022/02/12 12:19:02;;;;;;;11.68;3.70;;;6.60;99.90;;;;;;5067721;28;20036;-72
2022/02/12 12:21:29;;;;;;;12.45;4.25;;;6.60;99.90;;;;;;5068016;28;20054;-72
2022/02/12 12:23:57;;;;;;;8.20;3.83;;;6.70;99.90;;;;;;5069067;28;20132;-73
2022/02/12 12:26:36;;;;;;;8.65;3.78;;;6.80;99.90;;;;;;5070074;28;20043;-73
2022/02/12 12:31:59;;;;;;;7.90;3.53;;;6.80;99.90;;;;;;5070685;28;20705;-72
2022/02/12 12:34:25;;;;;;;11.00;3.58;;;6.90;99.90;;;;;;5070930;28;20045;-73
2022/02/12 12:36:51;;;;;;;10.20;2.97;;;7.00;99.90;;;;;;5066012;28;20095;-73
2022/02/12 12:39:16;;;;;;;9.65;3.97;;;7.00;99.90;;;;;;5066515;28;20094;-73
2022/02/12 12:41:43;;;;;;;11.63;3.67;;;7.00;99.90;;;;;;5067527;28;20531;-73
2022/02/12 12:44:21;;;;;;;8.05;3.10;;;7.00;99.90;;;;;;5064299;28;20489;-73
2022/02/12 12:46:49;;;;;;;6.10;3.15;;;7.00;99.90;;;;;;5069006;28;20044;-72
2022/02/12 12:49:33;;;;;;;9.88;3.65;;;7.10;99.90;;;;;;5069818;28;20045;-72
2022/02/12 12:52:01;;;;;;;6.65;3.67;;;7.20;99.90;;;;;;5069034;28;20477;-70